createdAt,value
2018-05-05T00:00:16.717Z,13.80
2018-05-05T00:01:16.691Z,13.10
2018-05-05T00:02:16.688Z,14.50
2018-05-05T00:03:16.639Z,13.10
2018-05-05T00:04:16.622Z,14.30
2018-05-05T00:05:16.592Z,13.70
2018-05-05T00:06:16.563Z,14.60
2018-05-05T00:07:16.563Z,14.50
2018-05-05T00:08:16.518Z,10.70
2018-05-05T00:09:16.486Z,12.50
2018-05-05T00:10:16.485Z,12.80
2018-05-05T00:11:16.438Z,12.60
2018-05-05T00:12:16.412Z,14.90
2018-05-05T00:13:16.386Z,14.80
2018-05-05T00:14:16.365Z,14.30
2018-05-05T00:15:16.341Z,14.50
2018-05-05T00:16:16.313Z,15.00
2018-05-05T00:17:16.282Z,13.30
2018-05-05T00:18:16.259Z,14.20
2018-05-05T00:19:16.235Z,14.20
2018-05-05T00:20:16.206Z,16.20
2018-05-05T00:21:16.188Z,13.50
2018-05-05T00:22:16.157Z,14.30
2018-05-05T00:23:16.139Z,11.80
2018-05-05T00:24:16.108Z,13.10
2018-05-05T00:25:16.082Z,12.60
2018-05-05T00:26:16.064Z,15.20
2018-05-05T00:27:16.032Z,12.90
2018-05-05T00:28:16.009Z,14.50
2018-05-05T00:29:15.982Z,14.00
2018-05-05T00:30:15.955Z,15.40
2018-05-05T00:31:15.925Z,13.40
2018-05-05T00:32:15.910Z,15.00
2018-05-05T00:33:15.880Z,15.30
2018-05-05T00:34:15.856Z,15.40
2018-05-05T00:35:15.834Z,12.80
2018-05-05T00:36:15.804Z,14.10
2018-05-05T00:37:15.778Z,12.90
2018-05-05T00:38:15.755Z,15.10
2018-05-05T00:39:15.731Z,13.30
2018-05-05T00:40:15.698Z,15.90
2018-05-05T00:41:15.677Z,13.60
2018-05-05T00:42:15.651Z,16.00
2018-05-05T00:43:15.620Z,17.00
2018-05-05T00:44:15.605Z,14.20
2018-05-05T00:45:15.577Z,15.60
2018-05-05T00:46:15.549Z,16.20
2018-05-05T00:47:15.526Z,16.50
2018-05-05T00:48:15.497Z,13.90
2018-05-05T00:49:15.473Z,12.80
2018-05-05T00:50:15.447Z,13.30
2018-05-05T00:51:15.418Z,15.20
2018-05-05T00:52:15.400Z,13.60
2018-05-05T00:53:15.367Z,13.20
2018-05-05T00:54:15.351Z,15.60
2018-05-05T00:55:15.313Z,17.40
2018-05-05T00:56:15.298Z,13.10
2018-05-05T00:57:15.273Z,16.50
2018-05-05T00:58:15.242Z,15.10
2018-05-05T00:59:15.220Z,14.40
2018-05-05T01:00:15.188Z,13.00
2018-05-05T01:01:15.168Z,13.70
2018-05-05T01:02:15.142Z,13.60
2018-05-05T01:03:15.115Z,12.50
2018-05-05T01:04:15.090Z,14.50
2018-05-05T01:05:15.075Z,14.90
2018-05-05T01:06:15.040Z,14.60
2018-05-05T01:07:15.013Z,15.10
2018-05-05T01:08:14.991Z,13.80
2018-05-05T01:09:14.968Z,15.10
2018-05-05T01:10:14.936Z,16.00
2018-05-05T01:11:14.913Z,15.00
2018-05-05T01:12:14.883Z,13.30
2018-05-05T01:13:14.861Z,13.20
2018-05-05T01:14:14.833Z,14.30
2018-05-05T01:15:14.804Z,14.80
2018-05-05T01:16:14.787Z,14.10
2018-05-05T01:17:14.758Z,13.70
2018-05-05T01:18:14.736Z,16.20
2018-05-05T01:19:14.711Z,13.20
2018-05-05T01:20:14.683Z,14.20
2018-05-05T01:21:14.652Z,14.60
2018-05-05T01:22:14.628Z,14.20
2018-05-05T01:23:14.606Z,12.70
2018-05-05T01:24:14.576Z,13.40
2018-05-05T01:25:14.552Z,14.20
2018-05-05T01:26:14.533Z,14.90
2018-05-05T01:27:14.506Z,13.50
2018-05-05T01:28:14.473Z,14.00
2018-05-05T01:29:14.452Z,12.80
2018-05-05T01:30:14.430Z,15.90
2018-05-05T01:31:14.400Z,15.80
2018-05-05T01:32:14.374Z,14.30
2018-05-05T01:33:14.351Z,14.10
2018-05-05T01:34:14.322Z,16.20
2018-05-05T01:35:14.293Z,14.10
2018-05-05T01:36:14.276Z,13.30
2018-05-05T01:37:14.246Z,18.30
2018-05-05T01:38:14.222Z,15.90
2018-05-05T01:39:14.197Z,16.80
2018-05-05T01:40:14.163Z,13.80
2018-05-05T01:41:14.148Z,14.40
2018-05-05T01:42:14.117Z,13.60
2018-05-05T01:43:14.092Z,16.80
2018-05-05T01:44:14.067Z,12.30
2018-05-05T01:45:14.038Z,15.90
2018-05-05T01:46:14.019Z,14.40
2018-05-05T01:47:13.993Z,13.30
2018-05-05T01:48:13.967Z,14.20
2018-05-05T01:49:13.936Z,14.60
2018-05-05T01:50:13.913Z,14.10
2018-05-05T01:51:13.891Z,13.00
2018-05-05T01:52:13.859Z,13.50
2018-05-05T01:53:13.837Z,14.40
2018-05-05T01:54:13.809Z,12.30
2018-05-05T01:55:13.788Z,13.80
2018-05-05T01:56:13.763Z,14.60
2018-05-05T01:57:13.731Z,14.30
2018-05-05T01:58:13.714Z,16.00
2018-05-05T01:59:13.683Z,14.20
2018-05-05T02:00:13.656Z,14.60
2018-05-05T02:01:13.636Z,15.80
2018-05-05T02:02:13.600Z,13.20
2018-05-05T02:03:13.576Z,14.40
2018-05-05T02:04:13.556Z,16.60
2018-05-05T02:05:13.536Z,15.00
2018-05-05T02:06:13.505Z,17.30
2018-05-05T02:07:13.471Z,15.10
2018-05-05T02:08:13.449Z,14.10
2018-05-05T02:09:13.431Z,17.40
2018-05-05T02:10:13.401Z,17.30
2018-05-05T02:11:13.371Z,15.80
2018-05-05T02:12:13.352Z,15.30
2018-05-05T02:13:13.322Z,17.30
2018-05-05T02:14:13.297Z,14.10
2018-05-05T02:15:13.273Z,14.80
2018-05-05T02:16:13.250Z,13.60
2018-05-05T02:17:13.224Z,14.50
2018-05-05T02:18:13.195Z,15.20
2018-05-05T02:19:13.168Z,17.50
2018-05-05T02:20:13.142Z,15.20
2018-05-05T02:21:13.115Z,16.30
2018-05-05T02:22:13.097Z,16.40
2018-05-05T02:23:13.069Z,14.60
2018-05-05T02:24:13.041Z,16.00
2018-05-05T02:25:13.009Z,16.60
2018-05-05T02:26:12.985Z,16.50
2018-05-05T02:27:12.964Z,15.20
2018-05-05T02:28:12.935Z,17.50
2018-05-05T02:29:12.912Z,14.50
2018-05-05T02:30:12.887Z,16.40
2018-05-05T02:31:12.861Z,19.50
2018-05-05T02:32:12.833Z,16.50
2018-05-05T02:33:12.808Z,13.00
2018-05-05T02:34:12.785Z,14.30
2018-05-05T02:35:12.756Z,18.90
2018-05-05T02:36:12.731Z,15.50
2018-05-05T02:37:12.710Z,18.40
2018-05-05T02:38:12.678Z,16.30
2018-05-05T02:39:12.654Z,13.50
2018-05-05T02:40:12.691Z,17.90
2018-05-05T02:41:12.603Z,15.70
2018-05-05T02:42:12.581Z,14.10
2018-05-05T02:43:12.562Z,16.90
2018-05-05T02:44:12.524Z,16.10
2018-05-05T02:45:12.501Z,16.20
2018-05-05T02:46:12.477Z,16.40
2018-05-05T02:47:12.451Z,18.00
2018-05-05T02:48:12.426Z,15.50
2018-05-05T02:49:12.399Z,15.70
2018-05-05T02:50:12.372Z,15.60
2018-05-05T02:51:12.348Z,16.40
2018-05-05T02:52:12.320Z,16.10
2018-05-05T02:53:12.297Z,15.10
2018-05-05T02:54:12.266Z,21.70
2018-05-05T02:55:12.240Z,16.50
2018-05-05T02:56:12.217Z,16.80
2018-05-05T02:57:12.206Z,17.20
2018-05-05T02:58:12.168Z,15.10
2018-05-05T02:59:12.137Z,17.40
2018-05-05T03:00:12.114Z,18.80
2018-05-05T03:01:12.104Z,16.90
2018-05-05T03:02:12.063Z,15.70
2018-05-05T03:03:12.040Z,16.00
2018-05-05T03:04:12.008Z,16.90
2018-05-05T03:05:11.980Z,15.70
2018-05-05T03:06:11.963Z,18.60
2018-05-05T03:07:11.925Z,16.20
2018-05-05T03:08:11.932Z,19.90
2018-05-05T03:09:11.885Z,16.10
2018-05-05T03:10:11.853Z,14.50
2018-05-05T03:11:11.825Z,16.20
2018-05-05T03:12:11.807Z,16.70
2018-05-05T03:13:11.773Z,15.20
2018-05-05T03:14:11.758Z,17.30
2018-05-05T03:15:11.727Z,15.20
2018-05-05T03:16:11.697Z,16.00
2018-05-05T03:17:11.668Z,16.80
2018-05-05T03:18:11.651Z,14.90
2018-05-05T03:19:11.616Z,17.20
2018-05-05T03:20:11.593Z,17.10
2018-05-05T03:21:11.569Z,17.10
2018-05-05T03:22:11.540Z,18.40
2018-05-05T03:23:11.516Z,16.30
2018-05-05T03:24:11.492Z,16.10
2018-05-05T03:25:11.462Z,17.10
2018-05-05T03:26:11.445Z,16.10
2018-05-05T03:27:11.415Z,15.50
2018-05-05T03:28:11.391Z,16.60
2018-05-05T03:29:11.367Z,15.50
2018-05-05T03:30:11.332Z,16.50
2018-05-05T03:31:11.313Z,16.10
2018-05-05T03:32:11.287Z,17.00
2018-05-05T03:33:11.264Z,19.40
2018-05-05T03:34:11.228Z,16.90
2018-05-05T03:35:11.209Z,17.00
2018-05-05T03:36:11.180Z,17.60
2018-05-05T03:37:11.156Z,17.40
2018-05-05T03:38:11.133Z,18.60
2018-05-05T03:39:11.099Z,17.60
2018-05-05T03:40:11.077Z,15.90
2018-05-05T03:41:11.054Z,15.30
2018-05-05T03:42:11.028Z,14.90
2018-05-05T03:43:11.002Z,18.90
2018-05-05T03:44:10.971Z,16.10
2018-05-05T03:45:10.953Z,16.30
2018-05-05T03:46:10.919Z,15.50
2018-05-05T03:47:10.891Z,16.20
2018-05-05T03:48:10.876Z,14.90
2018-05-05T03:49:10.844Z,15.70
2018-05-05T03:50:10.823Z,14.80
2018-05-05T03:51:10.789Z,19.80
2018-05-05T03:52:10.771Z,16.60
2018-05-05T03:53:10.739Z,17.70
2018-05-05T03:54:10.715Z,15.90
2018-05-05T03:55:10.692Z,15.90
2018-05-05T03:56:10.664Z,16.10
2018-05-05T03:57:10.660Z,17.50
2018-05-05T03:58:10.614Z,14.60
2018-05-05T03:59:10.583Z,17.80
2018-05-05T04:00:10.565Z,14.40
2018-05-05T04:01:10.534Z,16.10
2018-05-05T04:02:10.510Z,17.70
2018-05-05T04:03:10.490Z,16.40
2018-05-05T04:04:10.452Z,19.10
2018-05-05T04:05:10.435Z,16.30
2018-05-05T04:06:10.406Z,17.10
2018-05-05T04:07:10.381Z,14.80
2018-05-05T04:08:10.348Z,18.40
2018-05-05T04:09:10.322Z,16.90
2018-05-05T04:10:10.305Z,17.10
2018-05-05T04:11:10.279Z,16.40
2018-05-05T04:12:10.246Z,17.70
2018-05-05T04:13:10.221Z,18.60
2018-05-05T04:14:10.197Z,15.20
2018-05-05T04:15:10.174Z,17.50
2018-05-05T04:16:10.139Z,17.60
2018-05-05T04:17:10.119Z,18.70
2018-05-05T04:18:10.094Z,20.00
2018-05-05T04:19:10.063Z,18.20
2018-05-05T04:20:10.044Z,15.20
2018-05-05T04:21:10.010Z,19.40
2018-05-05T04:22:09.993Z,16.20
2018-05-05T04:23:09.955Z,17.70
2018-05-05T04:24:09.939Z,16.20
2018-05-05T04:25:09.910Z,17.70
2018-05-05T04:26:09.880Z,15.70
2018-05-05T04:27:09.863Z,17.40
2018-05-05T04:28:09.832Z,18.00
2018-05-05T04:29:09.807Z,17.30
2018-05-05T04:30:09.777Z,17.00
2018-05-05T04:31:09.756Z,17.60
2018-05-05T04:32:09.727Z,19.30
2018-05-05T04:33:09.702Z,18.60
2018-05-05T04:34:09.688Z,18.40
2018-05-05T04:35:09.647Z,17.20
2018-05-05T04:36:09.623Z,15.30
2018-05-05T04:37:09.595Z,17.80
2018-05-05T04:38:09.570Z,17.00
2018-05-05T04:39:09.551Z,18.00
2018-05-05T04:40:09.518Z,15.50
2018-05-05T04:41:09.493Z,16.70
2018-05-05T04:42:09.469Z,20.20
2018-05-05T04:43:09.438Z,16.70
2018-05-05T04:44:09.418Z,17.40
2018-05-05T04:45:09.388Z,15.90
2018-05-05T04:46:09.364Z,17.80
2018-05-05T04:47:09.334Z,16.80
2018-05-05T04:48:09.310Z,16.90
2018-05-05T04:49:09.293Z,18.10
2018-05-05T04:50:09.257Z,14.90
2018-05-05T04:51:09.235Z,19.00
2018-05-05T04:52:09.203Z,17.30
2018-05-05T04:53:09.178Z,18.40
2018-05-05T04:54:09.153Z,16.80
2018-05-05T04:55:09.124Z,17.00
2018-05-05T04:56:09.106Z,17.80
2018-05-05T04:57:09.155Z,17.10
2018-05-05T04:58:09.048Z,15.90
2018-05-05T04:59:09.029Z,18.30
2018-05-05T05:00:09.001Z,16.80
2018-05-05T05:01:08.973Z,19.10
2018-05-05T05:02:08.945Z,18.30
2018-05-05T05:03:08.921Z,18.90
2018-05-05T05:04:08.890Z,18.90
2018-05-05T05:05:08.873Z,16.60
2018-05-05T05:06:08.846Z,19.80
2018-05-05T05:07:08.815Z,19.10
2018-05-05T05:08:08.793Z,16.80
2018-05-05T05:09:08.770Z,18.60
2018-05-05T05:10:08.740Z,18.60
2018-05-05T05:11:08.736Z,20.80
2018-05-05T05:12:08.692Z,18.30
2018-05-05T05:13:08.657Z,16.20
2018-05-05T05:14:08.639Z,17.20
2018-05-05T05:15:08.605Z,20.20
2018-05-05T05:16:08.580Z,17.50
2018-05-05T05:17:08.560Z,19.00
2018-05-05T05:18:08.528Z,19.70
2018-05-05T05:19:08.502Z,17.50
2018-05-05T05:20:08.480Z,18.70
2018-05-05T05:21:08.449Z,17.40
2018-05-05T05:22:08.430Z,18.40
2018-05-05T05:23:08.444Z,16.90
2018-05-05T05:24:08.437Z,16.70
2018-05-05T05:25:08.365Z,19.20
2018-05-05T05:26:08.324Z,16.70
2018-05-05T05:27:08.291Z,18.70
2018-05-05T05:28:08.273Z,18.30
2018-05-05T05:29:08.245Z,18.10
2018-05-05T05:30:08.219Z,18.30
2018-05-05T05:31:08.198Z,17.00
2018-05-05T05:32:08.165Z,17.50
2018-05-05T05:33:08.137Z,17.80
2018-05-05T05:34:08.126Z,19.10
2018-05-05T05:35:08.090Z,17.60
2018-05-05T05:36:08.062Z,19.70
2018-05-05T05:37:08.041Z,18.10
2018-05-05T05:38:08.068Z,18.80
2018-05-05T05:39:07.981Z,19.00
2018-05-05T05:40:07.959Z,17.90
2018-05-05T05:41:07.930Z,17.50
2018-05-05T05:42:07.906Z,19.90
2018-05-05T05:43:07.895Z,19.10
2018-05-05T05:44:07.849Z,19.40
2018-05-05T05:45:07.830Z,19.90
2018-05-05T05:46:07.800Z,16.00
2018-05-05T05:47:07.779Z,19.20
2018-05-05T05:48:07.757Z,19.20
2018-05-05T05:49:07.731Z,20.60
2018-05-05T05:50:07.695Z,18.00
2018-05-05T05:51:07.676Z,18.20
2018-05-05T05:52:07.646Z,19.90
2018-05-05T05:53:07.712Z,18.70
2018-05-05T05:54:07.609Z,18.00
2018-05-05T05:55:07.565Z,15.70
2018-05-05T05:56:07.557Z,17.50
2018-05-05T05:57:07.529Z,14.80
2018-05-05T05:58:07.494Z,16.20
2018-05-05T05:59:07.499Z,18.50
2018-05-05T06:00:07.483Z,17.70
2018-05-05T06:01:07.453Z,16.50
2018-05-05T06:02:07.390Z,17.90
2018-05-05T06:03:07.370Z,17.50
2018-05-05T06:04:07.343Z,19.30
2018-05-05T06:05:07.309Z,21.70
2018-05-05T06:06:07.297Z,19.30
2018-05-05T06:07:07.269Z,21.20
2018-05-05T06:08:07.237Z,18.40
2018-05-05T06:09:07.211Z,17.00
2018-05-05T06:10:07.181Z,17.20
2018-05-05T06:11:07.156Z,19.10
2018-05-05T06:12:07.132Z,25.90
2018-05-05T06:13:07.110Z,16.50
2018-05-05T06:14:07.082Z,21.00
2018-05-05T06:15:07.059Z,20.50
2018-05-05T06:16:07.024Z,19.80
2018-05-05T06:17:07.003Z,18.40
2018-05-05T06:18:07.063Z,16.80
2018-05-05T06:19:06.947Z,16.80
2018-05-05T06:20:06.924Z,20.40
2018-05-05T06:21:06.931Z,19.80
2018-05-05T06:22:06.881Z,26.60
2018-05-05T06:23:06.850Z,20.10
2018-05-05T06:24:06.837Z,28.40
2018-05-05T06:25:06.797Z,22.00
2018-05-05T06:26:06.769Z,19.40
2018-05-05T06:27:06.740Z,18.80
2018-05-05T06:28:06.727Z,17.10
2018-05-05T06:29:06.693Z,16.30
2018-05-05T06:30:06.668Z,18.60
2018-05-05T06:31:06.643Z,22.10
2018-05-05T06:32:06.619Z,20.50
2018-05-05T06:33:06.585Z,17.40
2018-05-05T06:34:06.565Z,21.00
2018-05-05T06:35:06.542Z,21.00
2018-05-05T06:36:06.520Z,19.10
2018-05-05T06:37:06.511Z,21.90
2018-05-05T06:38:06.465Z,18.00
2018-05-05T06:39:06.431Z,15.00
2018-05-05T06:40:06.412Z,17.60
2018-05-05T06:41:06.390Z,14.80
2018-05-05T06:42:06.356Z,18.10
2018-05-05T06:43:06.331Z,18.30
2018-05-05T06:44:06.298Z,18.00
2018-05-05T06:45:06.274Z,22.10
2018-05-05T06:46:06.254Z,24.40
2018-05-05T06:47:06.226Z,20.30
2018-05-05T06:48:06.194Z,20.50
2018-05-05T06:49:06.172Z,20.90
2018-05-05T06:50:06.143Z,15.30
2018-05-05T06:51:06.117Z,18.00
2018-05-05T06:52:06.100Z,16.50
2018-05-05T06:53:06.067Z,18.30
2018-05-05T06:54:06.068Z,16.70
2018-05-05T06:55:06.023Z,18.80
2018-05-05T06:56:05.995Z,14.40
2018-05-05T06:57:06.029Z,25.00
2018-05-05T06:58:05.943Z,21.50
2018-05-05T06:59:05.917Z,19.40
2018-05-05T07:00:05.891Z,19.20
2018-05-05T07:01:05.872Z,23.10
2018-05-05T07:02:05.845Z,30.50
2018-05-05T07:03:05.820Z,27.60
2018-05-05T07:04:05.791Z,19.10
2018-05-05T07:05:05.761Z,25.10
2018-05-05T07:06:05.818Z,22.20
2018-05-05T07:07:05.715Z,19.40
2018-05-05T07:08:05.695Z,15.60
2018-05-05T07:09:05.692Z,20.10
2018-05-05T07:10:05.632Z,14.70
2018-05-05T07:11:05.612Z,13.00
2018-05-05T07:12:05.577Z,15.60
2018-05-05T07:13:05.556Z,16.10
2018-05-05T07:14:05.536Z,12.60
2018-05-05T07:15:05.499Z,15.70
2018-05-05T07:16:05.485Z,13.30
2018-05-05T07:17:05.451Z,16.60
2018-05-05T07:18:05.426Z,14.80
2018-05-05T07:19:05.403Z,17.50
2018-05-05T07:20:05.378Z,20.60
2018-05-05T07:21:05.362Z,14.10
2018-05-05T07:22:05.322Z,18.00
2018-05-05T07:23:05.298Z,17.00
2018-05-05T07:24:05.280Z,20.00
2018-05-05T07:25:05.251Z,20.40
2018-05-05T07:26:05.231Z,12.00
2018-05-05T07:27:05.204Z,18.60
2018-05-05T07:28:05.183Z,13.90
2018-05-05T07:29:05.157Z,15.40
2018-05-05T07:30:05.120Z,12.80
2018-05-05T07:31:05.101Z,11.40
2018-05-05T07:32:05.076Z,14.70
2018-05-05T07:33:05.055Z,13.70
2018-05-05T07:34:05.027Z,10.70
2018-05-05T07:35:04.998Z,12.40
2018-05-05T07:36:04.990Z,11.60
2018-05-05T07:37:04.948Z,8.10
2018-05-05T07:38:04.959Z,11.50
2018-05-05T07:39:04.896Z,10.00
2018-05-05T07:40:04.880Z,11.10
2018-05-05T07:41:04.847Z,10.30
2018-05-05T07:42:04.819Z,9.50
2018-05-05T07:43:04.791Z,9.20
2018-05-05T07:44:04.776Z,7.90
2018-05-05T07:45:04.741Z,7.40
2018-05-05T07:46:04.726Z,9.60
2018-05-05T07:47:04.696Z,8.90
2018-05-05T07:48:04.668Z,8.40
2018-05-05T07:49:04.648Z,9.60
2018-05-05T07:50:04.620Z,11.20
2018-05-05T07:51:04.593Z,8.60
2018-05-05T07:52:04.565Z,11.80
2018-05-05T07:53:04.539Z,9.10
2018-05-05T07:54:04.522Z,9.10
2018-05-05T07:55:04.491Z,12.40
2018-05-05T07:56:04.464Z,8.80
2018-05-05T07:57:04.443Z,10.40
2018-05-05T07:58:04.415Z,10.10
2018-05-05T07:59:04.387Z,10.20
2018-05-05T08:00:04.370Z,10.10
2018-05-05T08:01:04.338Z,8.80
2018-05-05T08:02:04.318Z,8.70
2018-05-05T08:03:04.290Z,10.60
2018-05-05T08:04:04.263Z,11.60
2018-05-05T08:05:04.244Z,9.80
2018-05-05T08:06:04.219Z,11.00
2018-05-05T08:07:04.183Z,10.80
2018-05-05T08:08:04.168Z,10.30
2018-05-05T08:09:04.132Z,8.00
2018-05-05T08:10:04.115Z,9.60
2018-05-05T08:11:04.084Z,9.10
2018-05-05T08:12:04.067Z,9.00
2018-05-05T08:13:04.033Z,9.20
2018-05-05T08:14:04.012Z,9.30
2018-05-05T08:15:03.986Z,8.80
2018-05-05T08:16:03.954Z,10.30
2018-05-05T08:17:03.936Z,10.00
2018-05-05T08:18:03.925Z,10.70
2018-05-05T08:19:03.878Z,8.30
2018-05-05T08:20:03.862Z,8.10
2018-05-05T08:21:03.828Z,9.90
2018-05-05T08:22:03.804Z,8.20
2018-05-05T08:23:03.785Z,9.60
2018-05-05T08:24:03.755Z,7.40
2018-05-05T08:25:03.735Z,7.80
2018-05-05T08:26:03.703Z,8.70
2018-05-05T08:27:03.679Z,9.70
2018-05-05T08:28:03.653Z,10.30
2018-05-05T08:29:03.678Z,9.60
2018-05-05T08:30:03.605Z,8.50
2018-05-05T08:31:03.576Z,9.30
2018-05-05T08:32:03.559Z,10.80
2018-05-05T08:33:03.530Z,8.80
2018-05-05T08:34:03.506Z,7.40
2018-05-05T08:35:03.486Z,11.30
2018-05-05T08:36:03.451Z,9.10
2018-05-05T08:37:03.429Z,8.40
2018-05-05T08:38:03.408Z,8.70
2018-05-05T08:39:03.382Z,8.10
2018-05-05T08:40:03.351Z,7.90
2018-05-05T08:41:03.324Z,9.20
2018-05-05T08:42:03.308Z,10.30
2018-05-05T08:43:03.276Z,8.90
2018-05-05T08:44:03.284Z,7.80
2018-05-05T08:45:03.234Z,10.50
2018-05-05T08:46:03.203Z,8.60
2018-05-05T08:47:03.184Z,7.80
2018-05-05T08:48:03.155Z,8.30
2018-05-05T08:49:03.136Z,7.30
2018-05-05T08:50:03.110Z,8.70
2018-05-05T08:51:03.077Z,8.90
2018-05-05T08:52:03.059Z,6.40
2018-05-05T08:53:03.026Z,5.90
2018-05-05T08:54:03.010Z,9.30
2018-05-05T08:55:03.901Z,8.60
2018-05-05T08:56:02.966Z,8.10
2018-05-05T08:57:02.929Z,9.00
2018-05-05T08:58:02.905Z,7.20
2018-05-05T08:59:02.880Z,11.50
2018-05-05T09:00:02.858Z,6.90
2018-05-05T09:01:02.827Z,8.70
2018-05-05T09:02:02.816Z,8.00
2018-05-05T09:03:02.847Z,9.40
2018-05-05T09:04:02.756Z,7.40
2018-05-05T09:05:02.736Z,10.20
2018-05-05T09:06:02.704Z,8.10
2018-05-05T09:07:02.687Z,9.80
2018-05-05T09:08:02.660Z,7.00
2018-05-05T09:09:02.637Z,7.40
2018-05-05T09:10:02.603Z,7.80
2018-05-05T09:11:02.585Z,7.00
2018-05-05T09:12:02.576Z,8.60
2018-05-05T09:13:02.538Z,7.70
2018-05-05T09:14:02.512Z,12.10
2018-05-05T09:15:02.491Z,9.90
2018-05-05T09:16:02.460Z,11.00
2018-05-05T09:17:02.448Z,11.60
2018-05-05T09:18:02.412Z,14.00
2018-05-05T09:19:02.401Z,8.50
2018-05-05T09:20:02.361Z,8.50
2018-05-05T09:21:02.417Z,10.70
2018-05-05T09:22:02.335Z,8.30
2018-05-05T09:23:02.289Z,10.90
2018-05-05T09:24:02.261Z,7.90
2018-05-05T09:25:02.237Z,8.90
2018-05-05T09:26:02.235Z,8.50
2018-05-05T09:27:02.191Z,12.20
2018-05-05T09:28:02.166Z,8.00
2018-05-05T09:29:02.146Z,8.00
2018-05-05T09:30:02.116Z,8.30
2018-05-05T09:31:02.090Z,6.80
2018-05-05T09:32:02.073Z,10.50
2018-05-05T09:33:02.047Z,9.10
2018-05-05T09:34:02.093Z,6.70
2018-05-05T09:35:01.996Z,8.10
2018-05-05T09:36:01.969Z,7.40
2018-05-05T09:37:01.945Z,7.50
2018-05-05T09:38:01.920Z,8.20
2018-05-05T09:39:01.897Z,10.20
2018-05-05T09:40:01.871Z,8.30
2018-05-05T09:41:01.850Z,7.50
2018-05-05T09:42:01.818Z,6.60
2018-05-05T09:43:01.805Z,7.30
2018-05-05T09:44:01.773Z,8.70
2018-05-05T09:45:01.742Z,8.00
2018-05-05T09:46:01.728Z,8.00
2018-05-05T09:47:01.699Z,8.00
2018-05-05T09:48:01.682Z,7.60
2018-05-05T09:49:01.649Z,6.30
2018-05-05T09:50:01.628Z,6.70
2018-05-05T09:51:01.610Z,7.50
2018-05-05T09:52:01.591Z,5.90
2018-05-05T09:53:01.555Z,5.90
2018-05-05T09:54:01.530Z,10.30
2018-05-05T09:55:01.501Z,8.90
2018-05-05T09:56:01.483Z,7.50
2018-05-05T09:57:01.461Z,8.70
2018-05-05T09:58:01.436Z,8.30
2018-05-05T09:59:01.408Z,7.20
2018-05-05T10:00:01.381Z,7.30
2018-05-05T10:01:01.363Z,6.80
2018-05-05T10:02:01.331Z,6.60
2018-05-05T10:03:01.308Z,6.30
2018-05-05T10:04:01.284Z,7.70
2018-05-05T10:05:01.263Z,7.70
2018-05-05T10:06:01.236Z,6.90
2018-05-05T10:07:01.210Z,6.80
2018-05-05T10:08:01.192Z,7.20
2018-05-05T10:09:01.191Z,8.90
2018-05-05T10:10:01.177Z,8.50
2018-05-05T10:11:01.162Z,8.00
2018-05-05T10:12:01.091Z,6.60
2018-05-05T10:13:01.074Z,8.40
2018-05-05T10:14:01.039Z,7.40
2018-05-05T10:15:01.016Z,5.30
2018-05-05T10:16:00.997Z,6.80
2018-05-05T10:17:00.971Z,7.40
2018-05-05T10:18:00.952Z,8.50
2018-05-05T10:19:00.923Z,7.00
2018-05-05T10:20:00.896Z,8.70
2018-05-05T10:21:00.874Z,7.70
2018-05-05T10:22:00.851Z,7.10
2018-05-05T10:23:00.828Z,6.40
2018-05-05T10:24:00.800Z,5.80
2018-05-05T10:25:00.779Z,9.30
2018-05-05T10:26:00.756Z,8.80
2018-05-05T10:27:00.723Z,11.80
2018-05-05T10:28:00.790Z,10.90
2018-05-05T10:29:00.676Z,17.60
2018-05-05T10:30:00.661Z,20.90
2018-05-05T10:31:00.634Z,25.00
2018-05-05T10:32:00.684Z,15.10
2018-05-05T10:33:00.589Z,17.20
2018-05-05T10:34:00.596Z,19.80
2018-05-05T10:35:00.534Z,12.30
2018-05-05T10:36:00.513Z,10.50
2018-05-05T10:37:00.485Z,10.10
2018-05-05T10:38:00.472Z,15.60
2018-05-05T10:39:00.434Z,10.70
2018-05-05T10:40:00.426Z,12.50
2018-05-05T10:41:00.440Z,9.20
2018-05-05T10:42:00.368Z,10.00
2018-05-05T10:43:00.405Z,7.60
2018-05-05T10:44:00.321Z,11.40
2018-05-05T10:45:00.306Z,10.80
2018-05-05T10:46:00.274Z,13.30
2018-05-05T10:47:00.256Z,8.60
2018-05-05T10:48:00.223Z,10.70
2018-05-05T10:49:00.205Z,9.00
2018-05-05T10:50:00.207Z,8.70
2018-05-05T10:51:00.154Z,9.60
2018-05-05T10:52:00.139Z,11.00
2018-05-05T10:53:00.109Z,10.30
2018-05-05T10:54:00.081Z,8.20
2018-05-05T10:55:00.065Z,8.40
2018-05-05T10:56:00.033Z,8.30
2018-05-05T10:57:00.095Z,8.40
2018-05-05T10:57:59.995Z,8.00
2018-05-05T10:58:59.962Z,6.40
2018-05-05T10:59:59.947Z,8.30
2018-05-05T11:00:59.918Z,8.90
2018-05-05T11:01:59.915Z,7.10
2018-05-05T11:02:59.873Z,9.20
2018-05-05T11:03:59.844Z,8.40
2018-05-05T11:04:59.821Z,7.30
2018-05-05T11:05:59.798Z,6.40
2018-05-05T11:06:59.776Z,7.00
2018-05-05T11:07:59.747Z,8.70
2018-05-05T11:08:59.730Z,7.40
2018-05-05T11:09:59.702Z,8.10
2018-05-05T11:10:59.682Z,6.80
2018-05-05T11:11:59.652Z,9.60
2018-05-05T11:12:59.629Z,7.20
2018-05-05T11:13:59.616Z,7.90
2018-05-05T11:14:59.575Z,8.60
2018-05-05T11:15:59.570Z,6.90
2018-05-05T11:16:59.534Z,6.00
2018-05-05T11:17:59.509Z,6.60
2018-05-05T11:18:59.484Z,6.20
2018-05-05T11:19:59.467Z,6.80
2018-05-05T11:20:59.448Z,8.50
2018-05-05T11:21:59.414Z,6.50
2018-05-05T11:22:59.391Z,6.90
2018-05-05T11:23:59.377Z,8.80
2018-05-05T11:24:59.336Z,7.30
2018-05-05T11:25:59.326Z,5.40
2018-05-05T11:26:59.293Z,6.20
2018-05-05T11:27:59.272Z,6.20
2018-05-05T11:28:59.253Z,8.20
2018-05-05T11:29:59.228Z,7.70
2018-05-05T11:30:59.205Z,5.80
2018-05-05T11:31:59.176Z,6.80
2018-05-05T11:32:59.160Z,9.00
2018-05-05T11:33:59.135Z,7.20
2018-05-05T11:34:59.112Z,6.60
2018-05-05T11:35:59.082Z,7.70
2018-05-05T11:36:59.076Z,6.10
2018-05-05T11:37:59.042Z,6.40
2018-05-05T11:38:59.012Z,6.30
2018-05-05T11:39:58.987Z,6.40
2018-05-05T11:40:58.963Z,6.50
2018-05-05T11:41:58.942Z,8.50
2018-05-05T11:42:58.922Z,7.70
2018-05-05T11:43:58.895Z,7.20
2018-05-05T11:44:58.868Z,6.80
2018-05-05T11:45:58.989Z,9.10
2018-05-05T11:46:58.816Z,5.50
2018-05-05T11:47:58.801Z,7.40
2018-05-05T11:48:58.768Z,7.50
2018-05-05T11:49:58.752Z,9.00
2018-05-05T11:50:58.732Z,7.10
2018-05-05T11:51:58.698Z,6.70
2018-05-05T11:52:58.676Z,8.70
2018-05-05T11:53:58.650Z,6.40
2018-05-05T11:54:58.635Z,5.40
2018-05-05T11:55:58.617Z,6.30
2018-05-05T11:56:58.590Z,7.50
2018-05-05T11:57:58.557Z,7.70
2018-05-05T11:58:58.549Z,6.70
2018-05-05T11:59:58.515Z,7.60
2018-05-05T12:00:58.486Z,5.30
2018-05-05T12:01:58.512Z,6.60
2018-05-05T12:02:58.444Z,7.60
2018-05-05T12:03:58.413Z,8.20
2018-05-05T12:04:58.397Z,7.20
2018-05-05T12:05:58.399Z,5.80
2018-05-05T12:06:58.351Z,6.50
2018-05-05T12:07:58.397Z,6.40
2018-05-05T12:08:58.300Z,6.60
2018-05-05T12:09:58.280Z,6.60
2018-05-05T12:10:58.247Z,8.50
2018-05-05T12:11:58.235Z,7.20
2018-05-05T12:12:58.211Z,7.80
2018-05-05T12:13:58.179Z,6.50
2018-05-05T12:14:58.164Z,5.90
2018-05-05T12:15:58.184Z,6.20
2018-05-05T12:16:58.107Z,7.30
2018-05-05T12:17:58.092Z,7.70
2018-05-05T12:18:58.067Z,7.00
2018-05-05T12:19:58.045Z,4.70
2018-05-05T12:20:58.047Z,7.20
2018-05-05T12:21:57.995Z,6.70
2018-05-05T12:22:57.969Z,6.30
2018-05-05T12:23:57.949Z,7.90
2018-05-05T12:24:57.931Z,5.70
2018-05-05T12:25:57.922Z,5.10
2018-05-05T12:26:57.886Z,8.10
2018-05-05T12:27:57.857Z,5.40
2018-05-05T12:28:57.828Z,4.50
2018-05-05T12:29:57.847Z,6.40
2018-05-05T12:30:57.781Z,7.10
2018-05-05T12:31:57.779Z,8.30
2018-05-05T12:32:57.743Z,5.30
2018-05-05T12:33:57.709Z,5.60
2018-05-05T12:34:57.741Z,8.50
2018-05-05T12:35:57.707Z,5.40
2018-05-05T12:36:57.643Z,5.20
2018-05-05T12:37:57.618Z,6.90
2018-05-05T12:38:57.595Z,5.70
2018-05-05T12:39:57.575Z,9.30
2018-05-05T12:40:57.552Z,6.80
2018-05-05T12:41:57.527Z,8.70
2018-05-05T12:42:57.505Z,8.20
2018-05-05T12:43:57.484Z,6.00
2018-05-05T12:44:57.456Z,5.90
2018-05-05T12:45:57.436Z,6.60
2018-05-05T12:46:57.416Z,6.50
2018-05-05T12:47:57.384Z,5.30
2018-05-05T12:48:57.365Z,6.60
2018-05-05T12:49:57.430Z,7.70
2018-05-05T12:50:57.313Z,6.60
2018-05-05T12:51:57.298Z,6.50
2018-05-05T12:52:57.273Z,5.50
2018-05-05T12:53:57.249Z,6.20
2018-05-05T12:54:57.220Z,7.20
2018-05-05T12:55:57.207Z,5.70
2018-05-05T12:56:57.210Z,4.70
2018-05-05T12:57:57.161Z,6.10
2018-05-05T12:58:57.136Z,5.40
2018-05-05T12:59:57.117Z,6.10
2018-05-05T13:00:57.088Z,7.50